sensor_id;sensor_type;location;lat;lon;timestamp;P1;durP1;ratioP1;P2;durP2;ratioP2
1320;SDS011;653;51.480;11.992;2022-07-29T00:02:18;4.27;;;2.70;;
1320;SDS011;653;51.480;11.992;2022-07-29T00:04:45;3.30;;;2.70;;
1320;SDS011;653;51.480;11.992;2022-07-29T00:07:10;6.47;;;2.77;;
1320;SDS011;653;51.480;11.992;2022-07-29T00:09:36;5.50;;;2.43;;
1320;SDS011;653;51.480;11.992;2022-07-29T00:12:02;6.37;;;3.20;;
1320;SDS011;653;51.480;11.992;2022-07-29T00:14:30;9.30;;;3.00;;
1320;SDS011;653;51.480;11.992;2022-07-29T00:16:57;4.60;;;3.47;;
1320;SDS011;653;51.480;11.992;2022-07-29T00:19:24;4.30;;;2.73;;
1320;SDS011;653;51.480;11.992;2022-07-29T00:21:53;3.30;;;2.70;;
1320;SDS011;653;51.480;11.992;2022-07-29T00:24:19;4.90;;;2.30;;
1320;SDS011;653;51.480;11.992;2022-07-29T00:26:46;4.17;;;2.70;;
1320;SDS011;653;51.480;11.992;2022-07-29T00:29:12;2.93;;;2.50;;
1320;SDS011;653;51.480;11.992;2022-07-29T00:31:39;4.37;;;3.07;;
1320;SDS011;653;51.480;11.992;2022-07-29T00:34:04;4.90;;;2.93;;
1320;SDS011;653;51.480;11.992;2022-07-29T00:36:32;4.27;;;2.70;;
1320;SDS011;653;51.480;11.992;2022-07-29T00:38:59;5.43;;;2.67;;
1320;SDS011;653;51.480;11.992;2022-07-29T00:41:25;7.10;;;3.00;;
1320;SDS011;653;51.480;11.992;2022-07-29T00:43:51;3.70;;;3.23;;
1320;SDS011;653;51.480;11.992;2022-07-29T00:46:16;4.53;;;2.60;;
1320;SDS011;653;51.480;11.992;2022-07-29T00:48:43;9.00;;;3.00;;
1320;SDS011;653;51.480;11.992;2022-07-29T00:51:10;3.70;;;2.40;;
1320;SDS011;653;51.480;11.992;2022-07-29T00:53:39;6.13;;;2.80;;
1320;SDS011;653;51.480;11.992;2022-07-29T00:56:07;5.17;;;2.73;;
1320;SDS011;653;51.480;11.992;2022-07-29T00:58:33;3.40;;;2.53;;
1320;SDS011;653;51.480;11.992;2022-07-29T01:01:00;6.20;;;2.50;;
1320;SDS011;653;51.480;11.992;2022-07-29T01:03:26;3.67;;;2.73;;
1320;SDS011;653;51.480;11.992;2022-07-29T01:05:51;5.40;;;2.67;;
1320;SDS011;653;51.480;11.992;2022-07-29T01:08:18;6.10;;;3.43;;
1320;SDS011;653;51.480;11.992;2022-07-29T01:10:45;3.13;;;2.83;;
1320;SDS011;653;51.480;11.992;2022-07-29T01:13:14;3.00;;;2.80;;
1320;SDS011;653;51.480;11.992;2022-07-29T01:15:43;4.17;;;2.67;;
1320;SDS011;653;51.480;11.992;2022-07-29T01:18:24;7.83;;;2.90;;
1320;SDS011;653;51.480;11.992;2022-07-29T01:21:33;5.40;;;2.77;;
1320;SDS011;653;51.480;11.992;2022-07-29T01:24:14;6.90;;;2.47;;
1320;SDS011;653;51.480;11.992;2022-07-29T01:30:06;3.70;;;2.83;;
1320;SDS011;653;51.480;11.992;2022-07-29T01:32:35;6.20;;;3.57;;
1320;SDS011;653;51.480;11.992;2022-07-29T01:35:10;4.40;;;2.93;;
1320;SDS011;653;51.480;11.992;2022-07-29T01:38:05;3.47;;;2.43;;
1320;SDS011;653;51.480;11.992;2022-07-29T01:43:17;4.10;;;2.87;;
1320;SDS011;653;51.480;11.992;2022-07-29T01:46:11;4.17;;;2.90;;
1320;SDS011;653;51.480;11.992;2022-07-29T01:48:47;4.13;;;2.63;;
1320;SDS011;653;51.480;11.992;2022-07-29T01:51:20;5.30;;;2.77;;
1320;SDS011;653;51.480;11.992;2022-07-29T01:56:36;3.90;;;2.57;;
1320;SDS011;653;51.480;11.992;2022-07-29T01:59:04;3.53;;;2.70;;
1320;SDS011;653;51.480;11.992;2022-07-29T02:01:33;3.83;;;2.70;;
1320;SDS011;653;51.480;11.992;2022-07-29T02:04:04;3.80;;;2.83;;
1320;SDS011;653;51.480;11.992;2022-07-29T02:06:33;5.10;;;2.47;;
1320;SDS011;653;51.480;11.992;2022-07-29T02:09:00;6.30;;;2.77;;
1320;SDS011;653;51.480;11.992;2022-07-29T02:11:27;5.57;;;3.03;;
1320;SDS011;653;51.480;11.992;2022-07-29T02:13:55;4.70;;;3.00;;
1320;SDS011;653;51.480;11.992;2022-07-29T02:16:27;4.07;;;2.90;;
1320;SDS011;653;51.480;11.992;2022-07-29T02:18:54;4.77;;;4.10;;
1320;SDS011;653;51.480;11.992;2022-07-29T02:21:23;6.77;;;3.20;;
1320;SDS011;653;51.480;11.992;2022-07-29T02:23:51;4.07;;;3.67;;
1320;SDS011;653;51.480;11.992;2022-07-29T02:26:19;4.93;;;3.17;;
1320;SDS011;653;51.480;11.992;2022-07-29T02:28:45;3.20;;;2.90;;
1320;SDS011;653;51.480;11.992;2022-07-29T02:31:13;4.70;;;3.10;;
1320;SDS011;653;51.480;11.992;2022-07-29T02:33:40;5.27;;;3.40;;
1320;SDS011;653;51.480;11.992;2022-07-29T02:36:07;3.50;;;2.73;;
1320;SDS011;653;51.480;11.992;2022-07-29T02:38:34;8.40;;;3.33;;
1320;SDS011;653;51.480;11.992;2022-07-29T02:41:16;5.43;;;3.00;;
1320;SDS011;653;51.480;11.992;2022-07-29T02:43:54;3.70;;;2.93;;
1320;SDS011;653;51.480;11.992;2022-07-29T02:46:30;7.70;;;2.90;;
1320;SDS011;653;51.480;11.992;2022-07-29T02:49:09;7.00;;;2.83;;
1320;SDS011;653;51.480;11.992;2022-07-29T02:51:41;3.33;;;2.60;;
1320;SDS011;653;51.480;11.992;2022-07-29T02:54:19;3.70;;;2.50;;
1320;SDS011;653;51.480;11.992;2022-07-29T02:56:49;6.40;;;3.27;;
1320;SDS011;653;51.480;11.992;2022-07-29T02:59:27;5.03;;;3.50;;
1320;SDS011;653;51.480;11.992;2022-07-29T03:01:55;3.80;;;3.27;;
1320;SDS011;653;51.480;11.992;2022-07-29T03:04:35;8.00;;;3.10;;
1320;SDS011;653;51.480;11.992;2022-07-29T03:07:56;3.00;;;2.70;;
1320;SDS011;653;51.480;11.992;2022-07-29T03:10:31;5.57;;;3.17;;
1320;SDS011;653;51.480;11.992;2022-07-29T03:12:57;7.93;;;3.17;;
1320;SDS011;653;51.480;11.992;2022-07-29T03:15:23;5.07;;;2.83;;
1320;SDS011;653;51.480;11.992;2022-07-29T03:17:50;5.83;;;3.23;;
1320;SDS011;653;51.480;11.992;2022-07-29T03:20:18;6.53;;;3.60;;
1320;SDS011;653;51.480;11.992;2022-07-29T03:22:45;10.80;;;3.67;;
1320;SDS011;653;51.480;11.992;2022-07-29T03:25:15;5.00;;;2.93;;
1320;SDS011;653;51.480;11.992;2022-07-29T03:27:44;3.50;;;3.20;;
1320;SDS011;653;51.480;11.992;2022-07-29T03:30:10;3.80;;;3.13;;
1320;SDS011;653;51.480;11.992;2022-07-29T03:32:36;4.80;;;3.50;;
1320;SDS011;653;51.480;11.992;2022-07-29T03:35:05;9.00;;;4.00;;
1320;SDS011;653;51.480;11.992;2022-07-29T03:37:31;5.60;;;3.53;;
1320;SDS011;653;51.480;11.992;2022-07-29T03:40:00;7.53;;;3.97;;
1320;SDS011;653;51.480;11.992;2022-07-29T03:42:29;6.30;;;4.03;;
1320;SDS011;653;51.480;11.992;2022-07-29T03:44:57;5.17;;;3.27;;
1320;SDS011;653;51.480;11.992;2022-07-29T03:47:25;4.63;;;3.07;;
1320;SDS011;653;51.480;11.992;2022-07-29T03:49:52;5.00;;;3.20;;
1320;SDS011;653;51.480;11.992;2022-07-29T03:52:23;4.60;;;3.17;;
1320;SDS011;653;51.480;11.992;2022-07-29T03:54:50;4.63;;;3.60;;
1320;SDS011;653;51.480;11.992;2022-07-29T03:57:16;4.90;;;3.90;;
1320;SDS011;653;51.480;11.992;2022-07-29T03:59:45;5.30;;;3.30;;
1320;SDS011;653;51.480;11.992;2022-07-29T04:02:11;5.73;;;2.90;;
1320;SDS011;653;51.480;11.992;2022-07-29T04:04:38;4.60;;;3.90;;
1320;SDS011;653;51.480;11.992;2022-07-29T04:07:05;4.10;;;3.70;;
1320;SDS011;653;51.480;11.992;2022-07-29T04:09:32;5.80;;;4.47;;
1320;SDS011;653;51.480;11.992;2022-07-29T04:11:58;6.33;;;4.33;;
1320;SDS011;653;51.480;11.992;2022-07-29T04:14:25;5.10;;;4.47;;
1320;SDS011;653;51.480;11.992;2022-07-29T04:16:51;5.77;;;4.77;;
1320;SDS011;653;51.480;11.992;2022-07-29T04:19:17;5.53;;;4.07;;
1320;SDS011;653;51.480;11.992;2022-07-29T04:21:42;4.23;;;3.57;;
1320;SDS011;653;51.480;11.992;2022-07-29T04:24:12;8.20;;;4.10;;
1320;SDS011;653;51.480;11.992;2022-07-29T04:26:39;4.20;;;3.80;;
1320;SDS011;653;51.480;11.992;2022-07-29T04:29:06;8.00;;;3.80;;
1320;SDS011;653;51.480;11.992;2022-07-29T04:31:33;7.60;;;3.53;;
1320;SDS011;653;51.480;11.992;2022-07-29T04:33:59;5.13;;;3.67;;
1320;SDS011;653;51.480;11.992;2022-07-29T04:36:26;4.53;;;3.57;;
1320;SDS011;653;51.480;11.992;2022-07-29T04:38:53;4.90;;;4.50;;
1320;SDS011;653;51.480;11.992;2022-07-29T04:41:19;6.57;;;4.30;;
1320;SDS011;653;51.480;11.992;2022-07-29T04:43:46;9.03;;;4.40;;
1320;SDS011;653;51.480;11.992;2022-07-29T04:46:12;6.47;;;3.80;;
1320;SDS011;653;51.480;11.992;2022-07-29T04:48:41;6.23;;;4.33;;
1320;SDS011;653;51.480;11.992;2022-07-29T04:51:06;7.43;;;4.17;;
1320;SDS011;653;51.480;11.992;2022-07-29T04:53:32;6.43;;;4.10;;
1320;SDS011;653;51.480;11.992;2022-07-29T04:55:57;3.83;;;3.53;;
1320;SDS011;653;51.480;11.992;2022-07-29T04:58:23;4.00;;;3.60;;
1320;SDS011;653;51.480;11.992;2022-07-29T05:00:50;6.23;;;3.50;;
1320;SDS011;653;51.480;11.992;2022-07-29T05:03:16;5.20;;;3.50;;
1320;SDS011;653;51.480;11.992;2022-07-29T05:05:43;5.90;;;3.60;;
1320;SDS011;653;51.480;11.992;2022-07-29T05:08:08;8.80;;;3.90;;
1320;SDS011;653;51.480;11.992;2022-07-29T05:10:35;4.80;;;3.33;;
1320;SDS011;653;51.480;11.992;2022-07-29T05:13:05;7.17;;;4.57;;
1320;SDS011;653;51.480;11.992;2022-07-29T05:15:33;6.47;;;4.30;;
1320;SDS011;653;51.480;11.992;2022-07-29T05:18:01;5.00;;;4.37;;
1320;SDS011;653;51.480;11.992;2022-07-29T05:20:30;6.77;;;3.83;;
1320;SDS011;653;51.480;11.992;2022-07-29T05:23:00;4.40;;;4.00;;
1320;SDS011;653;51.480;11.992;2022-07-29T05:25:27;5.27;;;3.90;;
1320;SDS011;653;51.480;11.992;2022-07-29T05:27:54;6.03;;;4.40;;
1320;SDS011;653;51.480;11.992;2022-07-29T05:30:21;8.70;;;3.80;;
1320;SDS011;653;51.480;11.992;2022-07-29T05:32:52;7.90;;;3.40;;
1320;SDS011;653;51.480;11.992;2022-07-29T05:35:19;7.07;;;3.87;;
1320;SDS011;653;51.480;11.992;2022-07-29T05:37:45;6.17;;;3.13;;
1320;SDS011;653;51.480;11.992;2022-07-29T05:40:10;5.13;;;3.57;;
1320;SDS011;653;51.480;11.992;2022-07-29T05:42:37;11.80;;;3.73;;
1320;SDS011;653;51.480;11.992;2022-07-29T05:45:03;7.90;;;3.30;;
1320;SDS011;653;51.480;11.992;2022-07-29T05:47:30;8.63;;;4.27;;
1320;SDS011;653;51.480;11.992;2022-07-29T05:49:55;6.07;;;3.57;;
1320;SDS011;653;51.480;11.992;2022-07-29T05:52:21;7.20;;;4.00;;
1320;SDS011;653;51.480;11.992;2022-07-29T05:54:48;5.90;;;3.40;;
1320;SDS011;653;51.480;11.992;2022-07-29T05:57:23;5.30;;;3.70;;
1320;SDS011;653;51.480;11.992;2022-07-29T05:59:49;5.27;;;3.80;;
1320;SDS011;653;51.480;11.992;2022-07-29T06:02:18;5.60;;;3.63;;
1320;SDS011;653;51.480;11.992;2022-07-29T06:04:44;5.97;;;3.50;;
1320;SDS011;653;51.480;11.992;2022-07-29T06:07:11;6.97;;;3.70;;
1320;SDS011;653;51.480;11.992;2022-07-29T06:09:44;8.37;;;4.30;;
1320;SDS011;653;51.480;11.992;2022-07-29T06:12:12;5.60;;;3.80;;
1320;SDS011;653;51.480;11.992;2022-07-29T06:14:39;7.33;;;4.23;;
1320;SDS011;653;51.480;11.992;2022-07-29T06:17:05;6.23;;;4.20;;
1320;SDS011;653;51.480;11.992;2022-07-29T06:19:33;9.20;;;3.90;;
1320;SDS011;653;51.480;11.992;2022-07-29T06:22:00;8.43;;;3.87;;
1320;SDS011;653;51.480;11.992;2022-07-29T06:24:27;4.83;;;3.40;;
1320;SDS011;653;51.480;11.992;2022-07-29T06:26:54;8.40;;;3.80;;
1320;SDS011;653;51.480;11.992;2022-07-29T06:29:20;5.93;;;4.10;;
1320;SDS011;653;51.480;11.992;2022-07-29T06:31:45;10.70;;;4.20;;
1320;SDS011;653;51.480;11.992;2022-07-29T06:34:12;7.90;;;4.03;;
1320;SDS011;653;51.480;11.992;2022-07-29T06:36:39;5.20;;;3.47;;
1320;SDS011;653;51.480;11.992;2022-07-29T06:39:07;6.83;;;3.30;;
1320;SDS011;653;51.480;11.992;2022-07-29T06:41:34;8.40;;;4.27;;
1320;SDS011;653;51.480;11.992;2022-07-29T06:44:00;6.30;;;4.00;;
1320;SDS011;653;51.480;11.992;2022-07-29T06:46:25;6.40;;;3.53;;
1320;SDS011;653;51.480;11.992;2022-07-29T06:48:51;4.63;;;3.60;;
1320;SDS011;653;51.480;11.992;2022-07-29T06:51:21;6.30;;;3.73;;
1320;SDS011;653;51.480;11.992;2022-07-29T06:53:46;6.47;;;3.70;;
1320;SDS011;653;51.480;11.992;2022-07-29T06:56:13;5.37;;;3.70;;
1320;SDS011;653;51.480;11.992;2022-07-29T06:58:40;6.37;;;4.10;;
1320;SDS011;653;51.480;11.992;2022-07-29T07:01:06;5.77;;;3.80;;
1320;SDS011;653;51.480;11.992;2022-07-29T07:03:32;5.07;;;3.83;;
1320;SDS011;653;51.480;11.992;2022-07-29T07:05:59;7.70;;;3.70;;
1320;SDS011;653;51.480;11.992;2022-07-29T07:08:28;3.93;;;3.53;;
1320;SDS011;653;51.480;11.992;2022-07-29T07:10:54;4.60;;;3.47;;
1320;SDS011;653;51.480;11.992;2022-07-29T07:13:21;5.60;;;3.80;;
1320;SDS011;653;51.480;11.992;2022-07-29T07:15:48;8.13;;;4.03;;
1320;SDS011;653;51.480;11.992;2022-07-29T07:18:26;4.70;;;4.10;;
1320;SDS011;653;51.480;11.992;2022-07-29T07:20:54;6.20;;;3.80;;
1320;SDS011;653;51.480;11.992;2022-07-29T07:23:22;7.07;;;3.33;;
1320;SDS011;653;51.480;11.992;2022-07-29T07:25:48;6.13;;;3.50;;
1320;SDS011;653;51.480;11.992;2022-07-29T07:28:22;5.77;;;4.10;;
1320;SDS011;653;51.480;11.992;2022-07-29T07:30:49;7.83;;;4.00;;
1320;SDS011;653;51.480;11.992;2022-07-29T07:33:15;6.03;;;3.60;;
1320;SDS011;653;51.480;11.992;2022-07-29T07:35:42;6.17;;;4.60;;
1320;SDS011;653;51.480;11.992;2022-07-29T07:38:11;5.90;;;4.03;;
1320;SDS011;653;51.480;11.992;2022-07-29T07:40:41;7.50;;;4.53;;
1320;SDS011;653;51.480;11.992;2022-07-29T07:43:08;5.43;;;3.53;;
1320;SDS011;653;51.480;11.992;2022-07-29T07:45:35;6.63;;;4.37;;
1320;SDS011;653;51.480;11.992;2022-07-29T07:48:03;3.97;;;3.63;;
1320;SDS011;653;51.480;11.992;2022-07-29T07:50:31;8.50;;;4.67;;
1320;SDS011;653;51.480;11.992;2022-07-29T07:52:59;5.20;;;4.70;;
1320;SDS011;653;51.480;11.992;2022-07-29T07:55:28;6.10;;;5.50;;
1320;SDS011;653;51.480;11.992;2022-07-29T07:57:55;5.03;;;4.53;;
1320;SDS011;653;51.480;11.992;2022-07-29T08:00:22;7.60;;;4.63;;
1320;SDS011;653;51.480;11.992;2022-07-29T08:02:49;8.60;;;5.43;;
1320;SDS011;653;51.480;11.992;2022-07-29T08:05:14;8.60;;;4.33;;
1320;SDS011;653;51.480;11.992;2022-07-29T08:07:44;6.60;;;4.73;;
1320;SDS011;653;51.480;11.992;2022-07-29T08:10:14;6.00;;;5.40;;
1320;SDS011;653;51.480;11.992;2022-07-29T08:13:05;7.53;;;5.83;;
1320;SDS011;653;51.480;11.992;2022-07-29T08:15:34;10.57;;;5.30;;
1320;SDS011;653;51.480;11.992;2022-07-29T08:18:00;7.70;;;5.27;;
1320;SDS011;653;51.480;11.992;2022-07-29T08:20:27;10.53;;;5.80;;
1320;SDS011;653;51.480;11.992;2022-07-29T08:22:54;8.60;;;6.57;;
1320;SDS011;653;51.480;11.992;2022-07-29T08:25:22;7.43;;;5.87;;
1320;SDS011;653;51.480;11.992;2022-07-29T08:27:49;8.50;;;5.90;;
1320;SDS011;653;51.480;11.992;2022-07-29T08:30:16;8.00;;;5.77;;
1320;SDS011;653;51.480;11.992;2022-07-29T08:32:43;12.47;;;6.97;;
1320;SDS011;653;51.480;11.992;2022-07-29T08:35:08;6.60;;;5.70;;
1320;SDS011;653;51.480;11.992;2022-07-29T08:37:36;7.43;;;5.40;;
1320;SDS011;653;51.480;11.992;2022-07-29T08:40:03;8.50;;;5.10;;
1320;SDS011;653;51.480;11.992;2022-07-29T08:42:30;6.73;;;4.60;;
1320;SDS011;653;51.480;11.992;2022-07-29T08:44:58;5.60;;;5.10;;
1320;SDS011;653;51.480;11.992;2022-07-29T08:47:25;6.10;;;5.00;;
1320;SDS011;653;51.480;11.992;2022-07-29T08:49:51;12.30;;;5.30;;
1320;SDS011;653;51.480;11.992;2022-07-29T08:52:17;6.30;;;5.17;;
1320;SDS011;653;51.480;11.992;2022-07-29T08:54:43;8.50;;;5.57;;
1320;SDS011;653;51.480;11.992;2022-07-29T08:57:12;8.00;;;4.90;;
1320;SDS011;653;51.480;11.992;2022-07-29T08:59:40;7.77;;;5.97;;
1320;SDS011;653;51.480;11.992;2022-07-29T09:02:07;6.40;;;5.10;;
1320;SDS011;653;51.480;11.992;2022-07-29T09:04:48;7.73;;;5.17;;
1320;SDS011;653;51.480;11.992;2022-07-29T09:07:18;6.23;;;5.63;;
1320;SDS011;653;51.480;11.992;2022-07-29T09:09:45;7.23;;;5.50;;
1320;SDS011;653;51.480;11.992;2022-07-29T09:12:12;10.17;;;5.93;;
1320;SDS011;653;51.480;11.992;2022-07-29T09:14:40;9.77;;;5.40;;
1320;SDS011;653;51.480;11.992;2022-07-29T09:17:07;5.30;;;4.90;;
1320;SDS011;653;51.480;11.992;2022-07-29T09:19:35;8.17;;;5.87;;
1320;SDS011;653;51.480;11.992;2022-07-29T09:22:05;9.70;;;6.10;;
1320;SDS011;653;51.480;11.992;2022-07-29T09:27:26;5.93;;;4.60;;
1320;SDS011;653;51.480;11.992;2022-07-29T09:30:08;6.37;;;5.03;;
1320;SDS011;653;51.480;11.992;2022-07-29T09:32:56;7.70;;;5.10;;
1320;SDS011;653;51.480;11.992;2022-07-29T09:35:27;6.10;;;5.20;;
1320;SDS011;653;51.480;11.992;2022-07-29T09:37:55;7.97;;;4.57;;
1320;SDS011;653;51.480;11.992;2022-07-29T09:40:23;6.10;;;4.70;;
1320;SDS011;653;51.480;11.992;2022-07-29T09:42:53;4.90;;;4.30;;
1320;SDS011;653;51.480;11.992;2022-07-29T09:45:27;5.57;;;4.20;;
1320;SDS011;653;51.480;11.992;2022-07-29T09:48:22;5.07;;;4.57;;
1320;SDS011;653;51.480;11.992;2022-07-29T09:50:47;7.43;;;4.50;;
1320;SDS011;653;51.480;11.992;2022-07-29T09:56:14;8.90;;;7.60;;
1320;SDS011;653;51.480;11.992;2022-07-29T09:58:41;19.97;;;15.70;;
1320;SDS011;653;51.480;11.992;2022-07-29T10:01:08;27.13;;;23.30;;
1320;SDS011;653;51.480;11.992;2022-07-29T10:09:39;32.30;;;27.20;;
1320;SDS011;653;51.480;11.992;2022-07-29T10:12:25;40.00;;;29.30;;
1320;SDS011;653;51.480;11.992;2022-07-29T10:14:50;33.97;;;28.60;;
1320;SDS011;653;51.480;11.992;2022-07-29T10:17:18;32.53;;;29.13;;
1320;SDS011;653;51.480;11.992;2022-07-29T10:19:44;27.37;;;22.00;;
1320;SDS011;653;51.480;11.992;2022-07-29T10:22:11;21.70;;;19.47;;
1320;SDS011;653;51.480;11.992;2022-07-29T10:24:38;16.60;;;13.27;;
1320;SDS011;653;51.480;11.992;2022-07-29T10:27:06;14.60;;;11.70;;
1320;SDS011;653;51.480;11.992;2022-07-29T10:29:34;11.90;;;9.37;;
1320;SDS011;653;51.480;11.992;2022-07-29T10:44:12;7.20;;;4.87;;
1320;SDS011;653;51.480;11.992;2022-07-29T10:46:41;9.80;;;5.80;;
1320;SDS011;653;51.480;11.992;2022-07-29T10:49:27;6.17;;;5.20;;
1320;SDS011;653;51.480;11.992;2022-07-29T10:54:45;7.40;;;5.23;;
1320;SDS011;653;51.480;11.992;2022-07-29T10:59:39;6.53;;;4.63;;
1320;SDS011;653;51.480;11.992;2022-07-29T11:10:44;5.27;;;4.30;;
1320;SDS011;653;51.480;11.992;2022-07-29T11:13:10;5.40;;;4.90;;
1320;SDS011;653;51.480;11.992;2022-07-29T11:15:52;5.20;;;4.70;;
1320;SDS011;653;51.480;11.992;2022-07-29T11:18:22;6.07;;;4.67;;
1320;SDS011;653;51.480;11.992;2022-07-29T11:20:49;5.23;;;4.73;;
1320;SDS011;653;51.480;11.992;2022-07-29T11:23:28;5.07;;;4.53;;
1320;SDS011;653;51.480;11.992;2022-07-29T11:31:37;7.63;;;4.67;;
1320;SDS011;653;51.480;11.992;2022-07-29T11:34:27;5.40;;;4.90;;
1320;SDS011;653;51.480;11.992;2022-07-29T11:40:15;6.57;;;4.30;;
1320;SDS011;653;51.480;11.992;2022-07-29T11:42:40;5.00;;;4.57;;
1320;SDS011;653;51.480;11.992;2022-07-29T11:45:13;4.63;;;4.20;;
1320;SDS011;653;51.480;11.992;2022-07-29T11:47:47;5.20;;;4.70;;
1320;SDS011;653;51.480;11.992;2022-07-29T11:50:28;4.73;;;4.23;;
1320;SDS011;653;51.480;11.992;2022-07-29T11:53:00;4.80;;;4.40;;
1320;SDS011;653;51.480;11.992;2022-07-29T11:55:27;6.33;;;5.13;;
1320;SDS011;653;51.480;11.992;2022-07-29T11:57:53;7.97;;;5.17;;
1320;SDS011;653;51.480;11.992;2022-07-29T12:00:35;10.20;;;4.50;;
1320;SDS011;653;51.480;11.992;2022-07-29T12:03:05;9.10;;;4.83;;
1320;SDS011;653;51.480;11.992;2022-07-29T12:05:52;6.23;;;4.80;;
1320;SDS011;653;51.480;11.992;2022-07-29T12:08:19;4.93;;;4.53;;
1320;SDS011;653;51.480;11.992;2022-07-29T12:10:47;10.10;;;4.55;;
1320;SDS011;653;51.480;11.992;2022-07-29T12:13:15;5.03;;;4.17;;
1320;SDS011;653;51.480;11.992;2022-07-29T12:15:51;5.30;;;4.80;;
1320;SDS011;653;51.480;11.992;2022-07-29T12:18:22;5.18;;;4.70;;
1320;SDS011;653;51.480;11.992;2022-07-29T12:20:48;6.43;;;4.72;;
1320;SDS011;653;51.480;11.992;2022-07-29T12:23:15;7.28;;;4.25;;
1320;SDS011;653;51.480;11.992;2022-07-29T12:25:41;9.70;;;4.75;;
1320;SDS011;653;51.480;11.992;2022-07-29T12:28:11;5.93;;;4.68;;
1320;SDS011;653;51.480;11.992;2022-07-29T12:30:45;7.80;;;4.65;;
1320;SDS011;653;51.480;11.992;2022-07-29T12:33:21;4.70;;;4.10;;
1320;SDS011;653;51.480;11.992;2022-07-29T12:35:49;4.18;;;3.88;;
1320;SDS011;653;51.480;11.992;2022-07-29T12:38:16;4.43;;;4.03;;
1320;SDS011;653;51.480;11.992;2022-07-29T12:40:43;4.70;;;4.30;;
1320;SDS011;653;51.480;11.992;2022-07-29T12:43:22;4.55;;;4.15;;
1320;SDS011;653;51.480;11.992;2022-07-29T12:45:54;6.80;;;4.18;;
1320;SDS011;653;51.480;11.992;2022-07-29T12:48:41;6.97;;;4.50;;
1320;SDS011;653;51.480;11.992;2022-07-29T12:51:10;5.45;;;4.78;;
1320;SDS011;653;51.480;11.992;2022-07-29T12:53:39;6.43;;;5.40;;
1320;SDS011;653;51.480;11.992;2022-07-29T12:56:05;5.00;;;3.92;;
1320;SDS011;653;51.480;11.992;2022-07-29T12:58:35;4.75;;;4.43;;
1320;SDS011;653;51.480;11.992;2022-07-29T13:01:06;5.80;;;4.35;;
1320;SDS011;653;51.480;11.992;2022-07-29T13:03:59;6.45;;;5.15;;
1320;SDS011;653;51.480;11.992;2022-07-29T13:06:28;5.50;;;4.47;;
1320;SDS011;653;51.480;11.992;2022-07-29T13:09:20;5.13;;;4.72;;
1320;SDS011;653;51.480;11.992;2022-07-29T13:11:50;5.25;;;3.85;;
1320;SDS011;653;51.480;11.992;2022-07-29T13:14:33;5.75;;;4.43;;
1320;SDS011;653;51.480;11.992;2022-07-29T13:17:10;5.88;;;4.18;;
1320;SDS011;653;51.480;11.992;2022-07-29T13:20:08;5.00;;;4.50;;
1320;SDS011;653;51.480;11.992;2022-07-29T13:22:57;4.80;;;4.10;;
1320;SDS011;653;51.480;11.992;2022-07-29T13:25:29;4.88;;;4.47;;
1320;SDS011;653;51.480;11.992;2022-07-29T13:27:58;4.55;;;4.15;;
1320;SDS011;653;51.480;11.992;2022-07-29T13:30:24;5.28;;;4.25;;
1320;SDS011;653;51.480;11.992;2022-07-29T13:32:51;4.95;;;4.45;;
1320;SDS011;653;51.480;11.992;2022-07-29T13:35:19;5.85;;;4.85;;
1320;SDS011;653;51.480;11.992;2022-07-29T13:37:46;6.78;;;5.30;;
1320;SDS011;653;51.480;11.992;2022-07-29T13:40:11;5.45;;;4.60;;
1320;SDS011;653;51.480;11.992;2022-07-29T13:42:38;5.38;;;4.82;;
1320;SDS011;653;51.480;11.992;2022-07-29T13:45:04;5.03;;;4.63;;
1320;SDS011;653;51.480;11.992;2022-07-29T13:47:32;4.68;;;4.28;;
1320;SDS011;653;51.480;11.992;2022-07-29T13:49:58;5.43;;;4.40;;
1320;SDS011;653;51.480;11.992;2022-07-29T13:52:25;5.80;;;5.05;;
1320;SDS011;653;51.480;11.992;2022-07-29T13:54:50;9.02;;;4.93;;
1320;SDS011;653;51.480;11.992;2022-07-29T13:57:15;5.57;;;4.57;;
1320;SDS011;653;51.480;11.992;2022-07-29T13:59:41;5.20;;;4.70;;
1320;SDS011;653;51.480;11.992;2022-07-29T14:02:08;5.50;;;4.57;;
1320;SDS011;653;51.480;11.992;2022-07-29T14:04:36;8.57;;;4.82;;
1320;SDS011;653;51.480;11.992;2022-07-29T14:07:03;4.53;;;4.13;;
1320;SDS011;653;51.480;11.992;2022-07-29T14:09:30;5.53;;;4.43;;
1320;SDS011;653;51.480;11.992;2022-07-29T14:11:56;5.30;;;4.90;;
1320;SDS011;653;51.480;11.992;2022-07-29T14:14:22;4.72;;;4.25;;
1320;SDS011;653;51.480;11.992;2022-07-29T14:16:47;6.35;;;4.63;;
1320;SDS011;653;51.480;11.992;2022-07-29T14:19:13;5.03;;;4.30;;
1320;SDS011;653;51.480;11.992;2022-07-29T14:21:39;6.47;;;4.88;;
1320;SDS011;653;51.480;11.992;2022-07-29T14:24:05;4.20;;;3.80;;
1320;SDS011;653;51.480;11.992;2022-07-29T14:26:32;4.53;;;4.13;;
1320;SDS011;653;51.480;11.992;2022-07-29T14:28:58;4.30;;;4.00;;
1320;SDS011;653;51.480;11.992;2022-07-29T14:31:24;4.30;;;3.90;;
1320;SDS011;653;51.480;11.992;2022-07-29T14:33:49;7.18;;;4.20;;
1320;SDS011;653;51.480;11.992;2022-07-29T14:36:15;5.70;;;4.40;;
1320;SDS011;653;51.480;11.992;2022-07-29T14:38:41;5.78;;;4.47;;
1320;SDS011;653;51.480;11.992;2022-07-29T14:41:07;6.20;;;4.75;;
1320;SDS011;653;51.480;11.992;2022-07-29T14:43:33;5.03;;;4.40;;
1320;SDS011;653;51.480;11.992;2022-07-29T14:46:01;4.70;;;4.30;;
1320;SDS011;653;51.480;11.992;2022-07-29T14:48:27;5.07;;;4.57;;
1320;SDS011;653;51.480;11.992;2022-07-29T14:50:52;5.30;;;4.80;;
1320;SDS011;653;51.480;11.992;2022-07-29T14:53:19;5.53;;;4.57;;
1320;SDS011;653;51.480;11.992;2022-07-29T14:55:46;6.25;;;4.43;;
1320;SDS011;653;51.480;11.992;2022-07-29T14:58:11;5.95;;;4.85;;
1320;SDS011;653;51.480;11.992;2022-07-29T15:00:38;5.50;;;4.30;;
1320;SDS011;653;51.480;11.992;2022-07-29T15:03:04;5.25;;;4.82;;
1320;SDS011;653;51.480;11.992;2022-07-29T15:05:31;8.68;;;4.85;;
1320;SDS011;653;51.480;11.992;2022-07-29T15:07:58;4.90;;;4.50;;
1320;SDS011;653;51.480;11.992;2022-07-29T15:10:25;5.40;;;3.92;;
1320;SDS011;653;51.480;11.992;2022-07-29T15:12:55;6.53;;;3.83;;
1320;SDS011;653;51.480;11.992;2022-07-29T15:15:22;4.35;;;4.05;;
1320;SDS011;653;51.480;11.992;2022-07-29T15:17:51;4.85;;;4.40;;
1320;SDS011;653;51.480;11.992;2022-07-29T15:20:18;5.80;;;4.90;;
1320;SDS011;653;51.480;11.992;2022-07-29T15:22:43;4.97;;;4.45;;
1320;SDS011;653;51.480;11.992;2022-07-29T15:25:09;4.97;;;4.60;;
1320;SDS011;653;51.480;11.992;2022-07-29T15:27:37;7.88;;;4.53;;
1320;SDS011;653;51.480;11.992;2022-07-29T15:30:05;4.97;;;4.57;;
1320;SDS011;653;51.480;11.992;2022-07-29T15:32:32;5.10;;;4.70;;
1320;SDS011;653;51.480;11.992;2022-07-29T15:34:59;7.07;;;5.05;;
1320;SDS011;653;51.480;11.992;2022-07-29T15:37:25;4.43;;;4.03;;
1320;SDS011;653;51.480;11.992;2022-07-29T15:39:52;4.53;;;4.22;;
1320;SDS011;653;51.480;11.992;2022-07-29T15:42:28;6.65;;;4.90;;
1320;SDS011;653;51.480;11.992;2022-07-29T15:44:56;5.53;;;4.88;;
1320;SDS011;653;51.480;11.992;2022-07-29T15:47:23;4.80;;;4.50;;
1320;SDS011;653;51.480;11.992;2022-07-29T15:49:50;5.00;;;4.60;;
1320;SDS011;653;51.480;11.992;2022-07-29T15:52:19;5.85;;;4.82;;
1320;SDS011;653;51.480;11.992;2022-07-29T15:54:47;4.80;;;4.40;;
1320;SDS011;653;51.480;11.992;2022-07-29T15:57:15;5.25;;;4.65;;
1320;SDS011;653;51.480;11.992;2022-07-29T15:59:42;4.22;;;3.83;;
1320;SDS011;653;51.480;11.992;2022-07-29T16:02:09;8.70;;;4.47;;
1320;SDS011;653;51.480;11.992;2022-07-29T16:04:37;4.50;;;4.20;;
1320;SDS011;653;51.480;11.992;2022-07-29T16:07:04;4.93;;;4.43;;
1320;SDS011;653;51.480;11.992;2022-07-29T16:09:29;6.65;;;4.97;;
1320;SDS011;653;51.480;11.992;2022-07-29T16:11:55;8.43;;;5.05;;
1320;SDS011;653;51.480;11.992;2022-07-29T16:14:22;5.75;;;5.00;;
1320;SDS011;653;51.480;11.992;2022-07-29T16:16:49;6.57;;;4.95;;
1320;SDS011;653;51.480;11.992;2022-07-29T16:19:17;5.68;;;4.75;;
1320;SDS011;653;51.480;11.992;2022-07-29T16:21:44;5.28;;;4.50;;
1320;SDS011;653;51.480;11.992;2022-07-29T16:24:10;7.03;;;4.47;;